Time;durP1;ratioP1;P1;durP2;ratioP2;P2;SDS_P1;SDS_P2;PMS_P1;PMS_P2;Temp;Humidity;BMP_temperature;BMP_pressure;BME280_temperature;BME280_humidity;BME280_pressure;Samples;Min_cycle;Max_cycle;Signal;HPM_P1;HPM_P2
2022/01/16 00:00:36;;;;;;;6.70;3.25;;;;;;;;;;6307246;22;20389;-78
2022/01/16 00:05:53;;;;;;;13.90;4.15;;;;;;;;;;6306454;22;20453;-78
2022/01/16 00:08:23;;;;;;;6.80;2.97;;;;;;;;;;6307649;22;20081;-78
2022/01/16 00:10:52;;;;;;;7.83;2.90;;;;;;;;;;6307159;22;20343;-77
2022/01/16 00:13:23;;;;;;;8.30;3.80;;;;;;;;;;6280458;22;20022;-77
2022/01/16 00:15:52;;;;;;;9.73;3.80;;;;;;;;;;6306669;22;20027;-78
2022/01/16 00:18:24;;;;;;;10.40;3.83;;;;;;;;;;6308414;22;20517;-78
2022/01/16 00:20:54;;;;;;;7.78;3.92;;;;;;;;;;6311279;22;20016;-78
2022/01/16 00:23:25;;;;;;;8.63;3.27;;;;;;;;;;6312760;22;20015;-78
2022/01/16 00:25:56;;;;;;;10.15;3.55;;;;;;;;;;6285001;22;20031;-78
2022/01/16 00:28:27;;;;;;;8.13;3.38;;;;;;;;;;6280446;22;20035;-78
2022/01/16 00:30:56;;;;;;;9.80;2.78;;;;;;;;;;6308194;22;20023;-78
2022/01/16 00:33:25;;;;;;;8.30;3.35;;;;;;;;;;6308154;22;20020;-78
2022/01/16 00:35:55;;;;;;;7.73;3.33;;;;;;;;;;6307887;22;20039;-78
2022/01/16 00:38:25;;;;;;;12.23;4.03;;;;;;;;;;6307452;22;20022;-78
2022/01/16 00:40:55;;;;;;;7.68;3.45;;;;;;;;;;6280993;22;20446;-78
2022/01/16 00:43:24;;;;;;;9.07;3.05;;;;;;;;;;6309967;22;20473;-78
2022/01/16 00:45:54;;;;;;;6.55;3.08;;;;;;;;;;6308903;22;20042;-78
2022/01/16 00:48:23;;;;;;;13.87;4.47;;;;;;;;;;6282018;22;20050;-78
2022/01/16 00:50:53;;;;;;;12.50;3.78;;;;;;;;;;6316880;22;20042;-79
2022/01/16 00:53:23;;;;;;;9.95;3.50;;;;;;;;;;6317420;22;20023;-78
2022/01/16 00:55:52;;;;;;;6.75;3.42;;;;;;;;;;6316582;22;20034;-79
2022/01/16 00:58:21;;;;;;;11.18;3.25;;;;;;;;;;6315475;22;20025;-78
2022/01/16 01:00:50;;;;;;;9.33;3.43;;;;;;;;;;6314945;22;20494;-78
2022/01/16 01:03:21;;;;;;;7.25;2.67;;;;;;;;;;6321306;22;20011;-78
2022/01/16 01:05:50;;;;;;;12.68;2.92;;;;;;;;;;6315199;22;20044;-78
2022/01/16 01:08:19;;;;;;;7.60;3.40;;;;;;;;;;6310214;22;20019;-78
2022/01/16 01:10:50;;;;;;;8.27;3.88;;;;;;;;;;6309956;22;20011;-78
2022/01/16 01:13:23;;;;;;;12.33;4.77;;;;;;;;;;6308608;22;20073;-78
2022/01/16 01:15:59;;;;;;;11.88;4.05;;;;;;;;;;6308468;22;20011;-78
2022/01/16 01:18:31;;;;;;;13.20;4.35;;;;;;;;;;6310230;22;20065;-79
2022/01/16 01:21:05;;;;;;;8.95;3.50;;;;;;;;;;6284121;22;20019;-78
2022/01/16 01:23:36;;;;;;;10.05;3.38;;;;;;;;;;6288075;22;20025;-78
2022/01/16 01:26:08;;;;;;;8.73;3.23;;;;;;;;;;6310173;22;20019;-78
2022/01/16 01:28:37;;;;;;;12.30;3.05;;;;;;;;;;6306670;22;20011;-78
2022/01/16 01:31:11;;;;;;;11.63;3.15;;;;;;;;;;6306653;22;20019;-78
2022/01/16 01:33:43;;;;;;;14.95;4.10;;;;;;;;;;6305862;22;20030;-78
2022/01/16 01:36:11;;;;;;;10.02;3.67;;;;;;;;;;6307119;22;20019;-78
2022/01/16 01:38:41;;;;;;;9.03;4.20;;;;;;;;;;6306121;22;20015;-78
2022/01/16 01:41:10;;;;;;;8.63;3.05;;;;;;;;;;6305987;22;20023;-78
2022/01/16 01:52:03;;;;;;;14.83;4.60;;;;;;;;;;6305943;22;20341;-77
2022/01/16 01:54:32;;;;;;;8.68;3.75;;;;;;;;;;6305869;22;20015;-78
2022/01/16 01:57:01;;;;;;;15.25;3.70;;;;;;;;;;6306087;22;20008;-78
2022/01/16 01:59:31;;;;;;;13.40;4.03;;;;;;;;;;6306344;22;20015;-78
2022/01/16 02:02:00;;;;;;;10.23;4.25;;;;;;;;;;6306134;22;20043;-78
2022/01/16 02:04:30;;;;;;;8.03;3.10;;;;;;;;;;6305504;22;20377;-78
2022/01/16 02:07:00;;;;;;;11.82;3.90;;;;;;;;;;6306530;22;20311;-78
2022/01/16 02:09:29;;;;;;;10.85;3.40;;;;;;;;;;6282766;22;20311;-79
2022/01/16 02:11:58;;;;;;;9.30;3.75;;;;;;;;;;6283128;22;19999;-79
2022/01/16 02:15:03;;;;;;;8.38;3.55;;;;;;;;;;6307131;22;20037;-78
2022/01/16 02:29:41;;;;;;;8.98;3.58;;;;;;;;;;6321304;22;20042;-79
2022/01/16 02:32:27;;;;;;;7.80;3.50;;;;;;;;;;6284222;22;20023;-78
2022/01/16 02:34:57;;;;;;;14.02;4.55;;;;;;;;;;6305779;22;20091;-78
2022/01/16 02:37:27;;;;;;;11.10;3.88;;;;;;;;;;6305350;22;20034;-77
2022/01/16 02:40:04;;;;;;;8.35;3.13;;;;;;;;;;6277780;22;20047;-78
2022/01/16 02:42:37;;;;;;;10.90;3.85;;;;;;;;;;6305856;22;20042;-78
2022/01/16 02:45:15;;;;;;;11.57;3.63;;;;;;;;;;6305476;22;20027;-78
2022/01/16 02:47:44;;;;;;;7.57;3.47;;;;;;;;;;6278027;22;20497;-78
2022/01/16 02:53:43;;;;;;;9.90;4.22;;;;;;;;;;6305844;22;20496;-78
2022/01/16 02:56:14;;;;;;;8.98;4.00;;;;;;;;;;6279642;22;20011;-78
2022/01/16 02:58:44;;;;;;;13.87;4.30;;;;;;;;;;6279699;22;20023;-78
2022/01/16 03:01:14;;;;;;;14.48;3.17;;;;;;;;;;6307883;22;20043;-78
2022/01/16 03:03:43;;;;;;;14.50;4.47;;;;;;;;;;6307450;22;20022;-79
2022/01/16 03:06:13;;;;;;;13.35;4.45;;;;;;;;;;6305481;22;20023;-78
2022/01/16 03:08:42;;;;;;;11.27;4.40;;;;;;;;;;6306219;22;20019;-78
2022/01/16 03:11:21;;;;;;;9.80;4.00;;;;;;;;;;6305805;22;20077;-78
2022/01/16 03:14:16;;;;;;;11.35;3.80;;;;;;;;;;6305564;22;20023;-77
2022/01/16 03:16:49;;;;;;;9.25;3.85;;;;;;;;;;6279034;22;20041;-78
2022/01/16 03:22:07;;;;;;;6.63;3.72;;;;;;;;;;6278477;22;20033;-78
2022/01/16 03:24:40;;;;;;;9.70;3.90;;;;;;;;;;6307957;22;20106;-78
2022/01/16 03:27:11;;;;;;;7.47;2.67;;;;;;;;;;6308334;22;20037;-78
2022/01/16 03:29:42;;;;;;;9.63;3.45;;;;;;;;;;6307849;22;20098;-78
2022/01/16 03:32:12;;;;;;;4.38;2.60;;;;;;;;;;6307371;22;20091;-78
2022/01/16 03:34:42;;;;;;;8.82;3.35;;;;;;;;;;6307818;22;20094;-78
2022/01/16 03:37:11;;;;;;;6.67;2.77;;;;;;;;;;6307743;22;20046;-78
2022/01/16 03:39:40;;;;;;;13.27;4.13;;;;;;;;;;6307495;22;20042;-78
2022/01/16 03:42:09;;;;;;;6.18;3.17;;;;;;;;;;6307235;22;20015;-77
2022/01/16 03:44:38;;;;;;;7.13;3.20;;;;;;;;;;6307517;22;20015;-78
2022/01/16 03:47:09;;;;;;;9.38;4.45;;;;;;;;;;6279432;22;20019;-77
2022/01/16 03:49:39;;;;;;;7.10;3.97;;;;;;;;;;6279826;22;20085;-78
2022/01/16 03:52:08;;;;;;;8.02;3.95;;;;;;;;;;6306276;22;20045;-77
2022/01/16 03:54:36;;;;;;;7.07;3.30;;;;;;;;;;6278401;22;20019;-77
2022/01/16 03:57:06;;;;;;;8.45;3.45;;;;;;;;;;6279463;22;20041;-77
2022/01/16 03:59:35;;;;;;;11.93;3.92;;;;;;;;;;6278770;22;20350;-78
2022/01/16 04:02:04;;;;;;;9.83;4.67;;;;;;;;;;6307044;22;20474;-77
2022/01/16 04:04:35;;;;;;;6.78;2.78;;;;;;;;;;6280234;22;20039;-77
2022/01/16 04:07:05;;;;;;;11.70;4.20;;;;;;;;;;6307737;22;20026;-78
2022/01/16 04:09:35;;;;;;;13.25;4.22;;;;;;;;;;6253960;22;20015;-78
2022/01/16 04:12:03;;;;;;;7.35;4.13;;;;;;;;;;6306144;22;20015;-77
2022/01/16 04:17:44;;;;;;;7.25;4.03;;;;;;;;;;6254197;22;20015;-78
2022/01/16 04:20:16;;;;;;;15.18;4.25;;;;;;;;;;6306026;22;20016;-77
2022/01/16 04:22:46;;;;;;;12.50;4.45;;;;;;;;;;6312930;22;20030;-79
2022/01/16 04:25:16;;;;;;;9.20;3.15;;;;;;;;;;6255143;22;20502;-77
2022/01/16 04:27:45;;;;;;;6.37;3.17;;;;;;;;;;6279714;22;20019;-78
2022/01/16 04:30:16;;;;;;;8.65;3.78;;;;;;;;;;6308781;22;20019;-78
2022/01/16 04:32:45;;;;;;;6.88;2.88;;;;;;;;;;6309235;22;20011;-78
2022/01/16 04:35:15;;;;;;;9.30;2.58;;;;;;;;;;6282673;22;20022;-77
2022/01/16 04:37:45;;;;;;;8.40;3.42;;;;;;;;;;6307926;22;20618;-77
2022/01/16 04:40:41;;;;;;;10.83;4.30;;;;;;;;;;6306513;22;20078;-78
2022/01/16 04:46:10;;;;;;;5.53;2.45;;;;;;;;;;6236963;22;20015;-78
2022/01/16 04:48:39;;;;;;;10.05;3.83;;;;;;;;;;6308729;22;20465;-78
2022/01/16 04:51:13;;;;;;;6.72;2.58;;;;;;;;;;6308122;22;20019;-78
2022/01/16 04:53:42;;;;;;;4.20;2.40;;;;;;;;;;6281411;22;20029;-77
2022/01/16 04:56:11;;;;;;;8.73;3.35;;;;;;;;;;6307267;22;20019;-77
2022/01/16 04:58:41;;;;;;;10.95;4.00;;;;;;;;;;6308201;22;20094;-78
2022/01/16 05:01:15;;;;;;;6.88;3.03;;;;;;;;;;6307238;22;20015;-77
2022/01/16 05:03:44;;;;;;;5.88;2.63;;;;;;;;;;6306036;22;20079;-78
2022/01/16 05:06:15;;;;;;;6.30;3.23;;;;;;;;;;6305604;22;20801;-77
2022/01/16 05:08:44;;;;;;;6.80;2.47;;;;;;;;;;6305924;22;20026;-77
2022/01/16 05:11:15;;;;;;;8.68;4.25;;;;;;;;;;6279306;22;20045;-77
2022/01/16 05:16:54;;;;;;;8.02;2.85;;;;;;;;;;6278676;22;20015;-77
2022/01/16 05:19:23;;;;;;;7.03;2.70;;;;;;;;;;6306322;22;20016;-77
2022/01/16 05:21:53;;;;;;;7.80;2.97;;;;;;;;;;6278768;22;20045;-77
2022/01/16 05:24:28;;;;;;;9.13;3.72;;;;;;;;;;6279777;22;20038;-77
2022/01/16 05:26:56;;;;;;;8.25;3.22;;;;;;;;;;6306582;22;20082;-77
2022/01/16 05:29:26;;;;;;;7.72;2.83;;;;;;;;;;6306371;22;20023;-78
2022/01/16 05:31:56;;;;;;;4.87;3.00;;;;;;;;;;6306397;22;20518;-78
2022/01/16 05:34:28;;;;;;;8.15;3.20;;;;;;;;;;6279899;22;20019;-77
2022/01/16 05:36:59;;;;;;;7.72;3.25;;;;;;;;;;6306037;22;20489;-78
2022/01/16 05:39:29;;;;;;;5.38;2.60;;;;;;;;;;6279494;22;20244;-78
2022/01/16 05:44:51;;;;;;;4.17;1.67;;;;;;;;;;6306232;22;20072;-78
2022/01/16 05:47:20;;;;;;;7.05;2.20;;;;;;;;;;6305864;22;20045;-78
2022/01/16 05:49:51;;;;;;;9.90;2.85;;;;;;;;;;6305118;22;20085;-78
2022/01/16 05:52:41;;;;;;;6.68;2.42;;;;;;;;;;6279068;22;20023;-77
2022/01/16 05:55:11;;;;;;;7.88;3.33;;;;;;;;;;6305536;22;20474;-78
2022/01/16 05:57:40;;;;;;;8.27;2.50;;;;;;;;;;6278524;22;20077;-78
2022/01/16 06:00:11;;;;;;;8.25;2.88;;;;;;;;;;6304843;22;20023;-77
2022/01/16 06:02:41;;;;;;;5.90;2.33;;;;;;;;;;6304868;22;20019;-78
2022/01/16 06:05:12;;;;;;;6.55;2.72;;;;;;;;;;6283689;22;20096;-79
2022/01/16 06:07:45;;;;;;;5.93;3.05;;;;;;;;;;6313302;22;20046;-79
2022/01/16 06:10:14;;;;;;;8.17;2.53;;;;;;;;;;6312322;22;20023;-78
2022/01/16 06:12:44;;;;;;;8.93;2.25;;;;;;;;;;6306171;22;20013;-78
2022/01/16 06:15:13;;;;;;;10.15;3.58;;;;;;;;;;6280625;22;20020;-78
2022/01/16 06:17:42;;;;;;;5.15;2.85;;;;;;;;;;6254885;22;20038;-78
2022/01/16 06:20:14;;;;;;;7.10;3.33;;;;;;;;;;6306447;22;20456;-78
2022/01/16 06:22:53;;;;;;;10.37;2.07;;;;;;;;;;6306548;22;20102;-78
2022/01/16 06:25:54;;;;;;;8.73;2.67;;;;;;;;;;6306028;22;20022;-78
2022/01/16 06:28:25;;;;;;;4.32;2.08;;;;;;;;;;6307692;22;20098;-78
2022/01/16 06:30:55;;;;;;;6.47;2.38;;;;;;;;;;6306274;22;20019;-78
2022/01/16 06:33:24;;;;;;;8.48;1.83;;;;;;;;;;6304079;22;20026;-78
2022/01/16 06:35:53;;;;;;;8.20;2.53;;;;;;;;;;6282664;22;20023;-78
2022/01/16 06:38:24;;;;;;;10.50;2.28;;;;;;;;;;6311628;22;20030;-78
2022/01/16 06:40:53;;;;;;;6.60;2.97;;;;;;;;;;6312749;22;20041;-78
2022/01/16 06:43:22;;;;;;;9.27;2.83;;;;;;;;;;6279933;22;20011;-78
2022/01/16 06:45:52;;;;;;;7.22;2.58;;;;;;;;;;6282029;22;20023;-79
2022/01/16 06:48:26;;;;;;;7.00;3.47;;;;;;;;;;6310037;22;20026;-78
2022/01/16 06:51:01;;;;;;;9.80;2.83;;;;;;;;;;6291870;22;20038;-78
2022/01/16 06:53:39;;;;;;;6.97;2.88;;;;;;;;;;6247368;22;20028;-76
2022/01/16 06:59:38;;;;;;;8.55;3.35;;;;;;;;;;6276705;22;20022;-70
2022/01/16 07:02:07;;;;;;;7.27;3.27;;;;;;;;;;6277047;22;20457;-72
2022/01/16 07:04:36;;;;;;;9.27;4.10;;;;;;;;;;6303882;22;20043;-74
2022/01/16 07:07:06;;;;;;;9.88;3.67;;;;;;;;;;6304337;22;20081;-74
2022/01/16 07:09:38;;;;;;;6.50;3.10;;;;;;;;;;6303977;22;20038;-74
2022/01/16 07:12:31;;;;;;;8.25;3.47;;;;;;;;;;6304805;22;20096;-76
2022/01/16 07:15:01;;;;;;;11.40;3.87;;;;;;;;;;6306085;22;20069;-72
2022/01/16 07:17:30;;;;;;;6.57;3.15;;;;;;;;;;6277240;22;20039;-77
2022/01/16 07:19:59;;;;;;;8.98;3.53;;;;;;;;;;6304706;22;20019;-77
2022/01/16 07:22:28;;;;;;;10.73;4.30;;;;;;;;;;6278865;22;20019;-75
2022/01/16 07:24:58;;;;;;;10.43;3.72;;;;;;;;;;6304602;22;20030;-76
2022/01/16 07:27:27;;;;;;;14.77;3.70;;;;;;;;;;6277236;22;20041;-76
2022/01/16 07:29:55;;;;;;;10.45;3.90;;;;;;;;;;6304025;22;20019;-76
2022/01/16 07:32:24;;;;;;;10.05;4.18;;;;;;;;;;6303840;22;20019;-76
2022/01/16 07:34:55;;;;;;;8.13;3.58;;;;;;;;;;6304530;22;20079;-75
2022/01/16 07:37:25;;;;;;;12.55;3.58;;;;;;;;;;6277889;22;20018;-76
2022/01/16 07:39:54;;;;;;;14.10;5.43;;;;;;;;;;6251110;22;20029;-76
2022/01/16 07:42:25;;;;;;;9.27;3.72;;;;;;;;;;6307449;22;20018;-76
2022/01/16 07:44:54;;;;;;;11.75;3.75;;;;;;;;;;6282749;22;20026;-75
2022/01/16 07:47:28;;;;;;;8.38;3.03;;;;;;;;;;6310683;22;20035;-76
2022/01/16 07:49:57;;;;;;;10.57;4.43;;;;;;;;;;6282476;22;20473;-75
2022/01/16 07:52:47;;;;;;;9.30;4.13;;;;;;;;;;6309698;22;20035;-75
2022/01/16 07:55:17;;;;;;;11.07;4.22;;;;;;;;;;6310770;22;20015;-75
2022/01/16 07:57:49;;;;;;;13.23;3.55;;;;;;;;;;6311151;22;20068;-74
2022/01/16 08:00:37;;;;;;;11.77;3.90;;;;;;;;;;6278054;22;20015;-75
2022/01/16 08:03:30;;;;;;;11.52;3.83;;;;;;;;;;6305732;22;20016;-75
2022/01/16 08:06:01;;;;;;;10.50;3.63;;;;;;;;;;6303737;22;20011;-75
2022/01/16 08:08:31;;;;;;;16.85;5.72;;;;;;;;;;6304743;22;20046;-75
2022/01/16 08:11:01;;;;;;;10.13;4.40;;;;;;;;;;6305314;22;20030;-75
2022/01/16 08:13:32;;;;;;;12.98;4.65;;;;;;;;;;6305725;22;20011;-75
2022/01/16 08:16:01;;;;;;;8.27;4.25;;;;;;;;;;6305957;22;20019;-74
2022/01/16 08:18:30;;;;;;;10.43;4.57;;;;;;;;;;6305647;22;20011;-75
2022/01/16 08:20:59;;;;;;;11.27;5.13;;;;;;;;;;6306018;22;20023;-75
2022/01/16 08:23:28;;;;;;;11.07;5.68;;;;;;;;;;6306553;22;20015;-76
2022/01/16 08:25:57;;;;;;;14.52;5.25;;;;;;;;;;6302660;22;20023;-76
2022/01/16 08:28:27;;;;;;;13.02;4.80;;;;;;;;;;6245421;22;20031;-76
2022/01/16 08:30:57;;;;;;;11.73;5.07;;;;;;;;;;6272841;22;20035;-75
2022/01/16 08:33:27;;;;;;;11.77;3.95;;;;;;;;;;6274773;22;20019;-75
2022/01/16 08:35:58;;;;;;;10.30;4.50;;;;;;;;;;6274310;22;20466;-76
2022/01/16 08:38:28;;;;;;;12.98;4.20;;;;;;;;;;6275281;22;20035;-77
2022/01/16 08:40:59;;;;;;;11.88;5.30;;;;;;;;;;6274901;22;20019;-76
2022/01/16 08:43:30;;;;;;;11.07;5.00;;;;;;;;;;6248163;22;20015;-75
2022/01/16 08:46:01;;;;;;;11.88;4.03;;;;;;;;;;6273924;22;20020;-75
2022/01/16 08:48:30;;;;;;;11.20;3.97;;;;;;;;;;6274364;22;20023;-75
2022/01/16 08:51:00;;;;;;;16.77;7.20;;;;;;;;;;6274583;22;20334;-76
2022/01/16 08:53:30;;;;;;;15.95;5.75;;;;;;;;;;6281118;22;20102;-75
2022/01/16 08:56:00;;;;;;;12.33;6.97;;;;;;;;;;6305507;22;20015;-75
2022/01/16 08:58:29;;;;;;;15.90;4.93;;;;;;;;;;6251741;22;20015;-75
2022/01/16 09:01:01;;;;;;;13.73;4.97;;;;;;;;;;6305143;22;20019;-76
2022/01/16 09:03:55;;;;;;;11.20;4.57;;;;;;;;;;6305184;22;20011;-75
2022/01/16 09:06:26;;;;;;;16.40;7.22;;;;;;;;;;6306146;22;20015;-75
2022/01/16 09:09:20;;;;;;;14.27;5.50;;;;;;;;;;6306299;22;20023;-75
2022/01/16 09:11:49;;;;;;;14.73;6.30;;;;;;;;;;6305572;22;20015;-75
2022/01/16 09:14:24;;;;;;;12.23;5.38;;;;;;;;;;6304985;22;20015;-77
2022/01/16 09:16:58;;;;;;;15.52;5.45;;;;;;;;;;6307457;22;20024;-80
2022/01/16 09:19:30;;;;;;;17.67;6.40;;;;;;;;;;6282540;22;20094;-77
2022/01/16 09:21:59;;;;;;;13.20;5.53;;;;;;;;;;6306031;22;20015;-78
2022/01/16 09:24:29;;;;;;;17.27;6.32;;;;;;;;;;6312710;22;20015;-78
2022/01/16 09:26:59;;;;;;;16.35;6.15;;;;;;;;;;6307156;22;20047;-78
2022/01/16 09:29:27;;;;;;;20.35;9.20;;;;;;;;;;6307925;22;20046;-77
2022/01/16 09:31:58;;;;;;;20.60;6.32;;;;;;;;;;6305341;22;20023;-75
2022/01/16 09:34:27;;;;;;;15.33;6.80;;;;;;;;;;6305598;22;20023;-74
2022/01/16 09:36:57;;;;;;;17.10;7.15;;;;;;;;;;6299077;22;20050;-75
2022/01/16 09:39:26;;;;;;;14.25;6.13;;;;;;;;;;6277755;22;20022;-75
2022/01/16 09:41:55;;;;;;;22.25;6.43;;;;;;;;;;6305236;22;20019;-75
2022/01/16 09:44:25;;;;;;;21.58;7.38;;;;;;;;;;6306755;22;20016;-75
2022/01/16 09:46:54;;;;;;;11.47;5.87;;;;;;;;;;6305008;22;20018;-75
2022/01/16 09:49:24;;;;;;;16.48;5.95;;;;;;;;;;6305753;22;20072;-76
2022/01/16 09:51:53;;;;;;;13.88;5.60;;;;;;;;;;6305588;22;20023;-76
2022/01/16 09:54:24;;;;;;;17.00;7.40;;;;;;;;;;6305042;22;20311;-76
2022/01/16 09:56:54;;;;;;;15.85;7.50;;;;;;;;;;6306385;22;20312;-77
2022/01/16 09:59:24;;;;;;;23.37;9.07;;;;;;;;;;6305664;22;20068;-76
2022/01/16 10:01:53;;;;;;;20.33;8.60;;;;;;;;;;6306434;22;20008;-76
2022/01/16 10:04:35;;;;;;;22.23;8.10;;;;;;;;;;6304556;22;20057;-76
2022/01/16 10:07:06;;;;;;;18.42;7.25;;;;;;;;;;6307084;22;20011;-76
2022/01/16 10:09:37;;;;;;;16.08;6.50;;;;;;;;;;6279392;22;20106;-77
2022/01/16 10:12:15;;;;;;;14.70;8.40;;;;;;;;;;6308854;22;20015;-77
2022/01/16 10:15:19;;;;;;;22.80;8.05;;;;;;;;;;6307425;22;20065;-77
2022/01/16 10:17:50;;;;;;;16.35;7.05;;;;;;;;;;6306290;22;20334;-75
2022/01/16 10:20:21;;;;;;;17.50;7.25;;;;;;;;;;6307376;22;20099;-75
2022/01/16 10:22:53;;;;;;;19.38;7.97;;;;;;;;;;6307487;22;20329;-76
2022/01/16 10:25:36;;;;;;;14.70;6.57;;;;;;;;;;6307593;22;20015;-75
2022/01/16 10:28:06;;;;;;;21.90;8.20;;;;;;;;;;6308186;22;20019;-76
2022/01/16 10:30:43;;;;;;;20.08;7.80;;;;;;;;;;6306168;22;20038;-75
2022/01/16 10:33:13;;;;;;;15.05;6.95;;;;;;;;;;6300754;22;20096;-75
2022/01/16 10:35:47;;;;;;;17.00;5.93;;;;;;;;;;6305847;22;20049;-75
2022/01/16 10:38:20;;;;;;;18.93;5.87;;;;;;;;;;6303580;22;20007;-75
2022/01/16 10:40:51;;;;;;;17.63;7.70;;;;;;;;;;6256002;22;20011;-79
2022/01/16 10:43:21;;;;;;;16.23;6.50;;;;;;;;;;6305450;22;20026;-74
2022/01/16 10:45:53;;;;;;;21.15;8.00;;;;;;;;;;6306746;22;20488;-75
2022/01/16 10:48:24;;;;;;;13.05;7.00;;;;;;;;;;6305204;22;20026;-76
2022/01/16 10:50:55;;;;;;;21.67;9.37;;;;;;;;;;6306689;22;20007;-75
2022/01/16 10:53:26;;;;;;;18.88;7.05;;;;;;;;;;6305766;22;20077;-77
2022/01/16 10:55:56;;;;;;;12.40;5.53;;;;;;;;;;6306523;22;20015;-77
2022/01/16 10:58:26;;;;;;;24.88;9.65;;;;;;;;;;6279580;22;20042;-76
2022/01/16 11:01:00;;;;;;;13.15;6.13;;;;;;;;;;6309497;22;20110;-79
2022/01/16 11:03:31;;;;;;;17.07;5.83;;;;;;;;;;6309334;22;20022;-76
2022/01/16 11:06:03;;;;;;;21.45;7.45;;;;;;;;;;6305232;22;20070;-77
2022/01/16 11:08:34;;;;;;;17.05;6.88;;;;;;;;;;6309728;22;20034;-76
2022/01/16 11:11:06;;;;;;;17.52;5.50;;;;;;;;;;6315513;22;20019;-76
2022/01/16 11:14:06;;;;;;;17.00;6.63;;;;;;;;;;6310607;22;20011;-76
2022/01/16 11:16:59;;;;;;;18.73;5.63;;;;;;;;;;6311539;22;20098;-80
2022/01/16 11:20:07;;;;;;;13.02;6.70;;;;;;;;;;6315532;22;20014;-78
2022/01/16 11:22:56;;;;;;;12.52;5.13;;;;;;;;;;6324237;22;20021;-76
2022/01/16 11:25:31;;;;;;;12.93;6.25;;;;;;;;;;6337421;22;20021;-77
2022/01/16 11:28:01;;;;;;;11.88;5.63;;;;;;;;;;6309284;22;20015;-74
2022/01/16 11:30:31;;;;;;;14.10;5.77;;;;;;;;;;6334769;22;20011;-71
2022/01/16 11:33:01;;;;;;;10.45;5.13;;;;;;;;;;6334636;22;20027;-75
2022/01/16 11:35:31;;;;;;;12.93;5.85;;;;;;;;;;6335159;22;20015;-73
2022/01/16 11:38:02;;;;;;;10.75;3.75;;;;;;;;;;6309344;22;20101;-72
2022/01/16 11:40:42;;;;;;;9.35;3.85;;;;;;;;;;6306295;22;20015;-72
2022/01/16 11:43:23;;;;;;;15.77;4.23;;;;;;;;;;6308649;22;20019;-72
2022/01/16 11:45:53;;;;;;;9.10;2.88;;;;;;;;;;6310251;22;20026;-72
2022/01/16 11:48:36;;;;;;;8.48;3.47;;;;;;;;;;6338079;22;20042;-72
2022/01/16 11:54:41;;;;;;;8.60;3.38;;;;;;;;;;6337516;22;20015;-72
2022/01/16 11:57:29;;;;;;;10.53;3.83;;;;;;;;;;6310577;22;20025;-71
2022/01/16 12:00:09;;;;;;;6.32;2.97;;;;;;;;;;6337224;22;20037;-72
2022/01/16 12:02:42;;;;;;;5.63;2.15;;;;;;;;;;6310096;22;20018;-72
2022/01/16 12:05:12;;;;;;;6.68;2.75;;;;;;;;;;6336947;22;20506;-72
2022/01/16 12:07:46;;;;;;;10.63;4.53;;;;;;;;;;6337068;22;20022;-72
2022/01/16 12:10:36;;;;;;;9.03;2.77;;;;;;;;;;6337427;22;20015;-72
2022/01/16 12:13:05;;;;;;;8.45;3.63;;;;;;;;;;6337490;22;20017;-72
2022/01/16 12:15:35;;;;;;;7.47;2.72;;;;;;;;;;6337000;22;20019;-72
2022/01/16 12:18:04;;;;;;;8.50;2.75;;;;;;;;;;6337928;22;20434;-73
2022/01/16 12:20:38;;;;;;;6.78;2.47;;;;;;;;;;6308500;22;20018;-72
2022/01/16 12:23:09;;;;;;;7.20;3.67;;;;;;;;;;6336750;22;20060;-72
2022/01/16 12:25:56;;;;;;;8.77;3.45;;;;;;;;;;6310413;22;20038;-71
2022/01/16 12:28:26;;;;;;;8.65;3.50;;;;;;;;;;6336930;22;20015;-72
2022/01/16 12:30:59;;;;;;;10.25;2.72;;;;;;;;;;6335840;22;20438;-72
2022/01/16 12:33:29;;;;;;;9.07;4.07;;;;;;;;;;6336432;22;20023;-72
2022/01/16 12:36:08;;;;;;;8.10;3.60;;;;;;;;;;6336517;22;20456;-72
2022/01/16 12:38:53;;;;;;;17.23;6.35;;;;;;;;;;6337136;22;20346;-72
2022/01/16 12:41:27;;;;;;;8.93;3.47;;;;;;;;;;6336965;22;20015;-73
2022/01/16 12:43:58;;;;;;;6.55;2.55;;;;;;;;;;6337693;22;20023;-72
2022/01/16 12:46:29;;;;;;;11.05;3.42;;;;;;;;;;6337090;22;20018;-72
2022/01/16 12:49:02;;;;;;;8.13;3.07;;;;;;;;;;6310204;22;20076;-72
2022/01/16 12:51:34;;;;;;;11.90;4.10;;;;;;;;;;6309249;22;20015;-72
2022/01/16 12:54:05;;;;;;;7.88;3.40;;;;;;;;;;6337192;22;20019;-72
2022/01/16 12:56:37;;;;;;;12.32;3.65;;;;;;;;;;6336509;22;20015;-72
2022/01/16 12:59:11;;;;;;;9.93;2.47;;;;;;;;;;6309647;22;20026;-73
2022/01/16 13:01:45;;;;;;;8.77;3.57;;;;;;;;;;6337958;22;20019;-72
2022/01/16 13:04:28;;;;;;;9.77;4.07;;;;;;;;;;6336562;22;20094;-72
2022/01/16 13:06:58;;;;;;;11.93;4.07;;;;;;;;;;6283595;22;20051;-72
2022/01/16 13:09:28;;;;;;;5.65;2.60;;;;;;;;;;6337640;22;20019;-72
2022/01/16 13:12:00;;;;;;;9.25;3.60;;;;;;;;;;6337173;22;20031;-72
2022/01/16 13:14:30;;;;;;;10.50;3.03;;;;;;;;;;6337661;22;20022;-72
2022/01/16 13:17:00;;;;;;;9.70;3.50;;;;;;;;;;6309135;22;20026;-72
2022/01/16 13:19:37;;;;;;;6.00;2.90;;;;;;;;;;6337365;22;20491;-73
2022/01/16 13:22:11;;;;;;;9.35;3.65;;;;;;;;;;6303869;22;20023;-73
2022/01/16 13:24:47;;;;;;;7.32;3.20;;;;;;;;;;6304178;22;20017;-72
2022/01/16 13:27:42;;;;;;;9.47;3.30;;;;;;;;;;6303861;22;20056;-73
2022/01/16 13:30:16;;;;;;;10.18;4.03;;;;;;;;;;6306343;22;20022;-73
2022/01/16 13:32:46;;;;;;;8.13;2.55;;;;;;;;;;6305146;22;20022;-73
2022/01/16 13:35:22;;;;;;;10.10;3.50;;;;;;;;;;6304900;22;20043;-74
2022/01/16 13:37:54;;;;;;;9.48;3.38;;;;;;;;;;6306812;22;20109;-74
2022/01/16 13:40:24;;;;;;;7.77;3.23;;;;;;;;;;6307573;22;20023;-74
2022/01/16 13:43:03;;;;;;;7.68;2.88;;;;;;;;;;6307051;22;20015;-73
2022/01/16 13:45:35;;;;;;;5.65;2.38;;;;;;;;;;6306093;22;20434;-74
2022/01/16 13:48:05;;;;;;;7.20;2.72;;;;;;;;;;6277797;22;20025;-73
2022/01/16 13:50:38;;;;;;;7.82;3.90;;;;;;;;;;6306111;22;20023;-73
2022/01/16 13:53:11;;;;;;;9.90;3.53;;;;;;;;;;6302455;22;20038;-77
2022/01/16 13:55:47;;;;;;;11.38;3.97;;;;;;;;;;6305054;22;20085;-77
2022/01/16 13:58:19;;;;;;;8.93;3.58;;;;;;;;;;6306364;22;20094;-78
2022/01/16 14:00:48;;;;;;;8.45;3.45;;;;;;;;;;6306863;22;20350;-79
2022/01/16 14:03:20;;;;;;;8.75;3.72;;;;;;;;;;6309056;22;20469;-76
2022/01/16 14:05:51;;;;;;;7.07;3.30;;;;;;;;;;6304037;22;20334;-76
2022/01/16 14:08:22;;;;;;;10.20;4.22;;;;;;;;;;6303107;22;20379;-76
2022/01/16 14:10:52;;;;;;;9.02;3.28;;;;;;;;;;6305514;22;20015;-76
2022/01/16 14:13:23;;;;;;;7.40;3.60;;;;;;;;;;6304348;22;20015;-76
2022/01/16 14:16:06;;;;;;;8.63;4.70;;;;;;;;;;6303608;22;20026;-76
2022/01/16 14:24:15;;;;;;;10.85;3.55;;;;;;;;;;6306601;22;20041;-77
2022/01/16 14:26:48;;;;;;;7.78;3.53;;;;;;;;;;6304725;22;20038;-77
2022/01/16 14:29:19;;;;;;;9.43;3.60;;;;;;;;;;6306194;22;20030;-77
2022/01/16 14:31:49;;;;;;;14.53;4.37;;;;;;;;;;6310377;22;20015;-76
2022/01/16 14:34:20;;;;;;;8.30;3.72;;;;;;;;;;6310891;22;20019;-77
2022/01/16 14:36:50;;;;;;;11.13;4.55;;;;;;;;;;6306142;22;20502;-77
2022/01/16 14:39:22;;;;;;;9.95;3.38;;;;;;;;;;6308056;22;20011;-77
2022/01/16 14:41:52;;;;;;;8.70;3.25;;;;;;;;;;6307951;22;20056;-77
2022/01/16 14:44:23;;;;;;;14.80;5.07;;;;;;;;;;6307399;22;20455;-76
2022/01/16 14:46:53;;;;;;;7.13;3.25;;;;;;;;;;6307546;22;20041;-76
2022/01/16 14:49:23;;;;;;;10.13;4.82;;;;;;;;;;6306059;22;20409;-76
2022/01/16 14:51:53;;;;;;;15.77;5.10;;;;;;;;;;6279544;22;20023;-76
2022/01/16 14:54:44;;;;;;;14.50;4.97;;;;;;;;;;6306887;22;20323;-75
2022/01/16 14:57:14;;;;;;;11.30;4.10;;;;;;;;;;6308707;22;20019;-76
2022/01/16 14:59:47;;;;;;;14.05;4.38;;;;;;;;;;6309439;22;20023;-75
2022/01/16 15:02:42;;;;;;;8.23;2.95;;;;;;;;;;6310857;22;20011;-78
2022/01/16 15:05:14;;;;;;;10.23;4.65;;;;;;;;;;6308940;22;20438;-74
2022/01/16 15:07:44;;;;;;;10.10;3.83;;;;;;;;;;6303136;22;20346;-73
2022/01/16 15:10:14;;;;;;;15.13;4.93;;;;;;;;;;6304299;22;20086;-76
2022/01/16 15:12:44;;;;;;;15.15;5.28;;;;;;;;;;6305789;22;20019;-75
2022/01/16 15:15:18;;;;;;;11.32;3.60;;;;;;;;;;6305342;22;20073;-73
2022/01/16 15:17:55;;;;;;;13.65;5.85;;;;;;;;;;6305197;22;20019;-73
2022/01/16 15:20:28;;;;;;;16.38;5.45;;;;;;;;;;6305529;22;20022;-74
2022/01/16 15:23:18;;;;;;;15.93;5.27;;;;;;;;;;6337952;22;20341;-76
2022/01/16 15:25:48;;;;;;;13.85;5.50;;;;;;;;;;6338617;22;20025;-74
2022/01/16 15:28:19;;;;;;;14.95;6.57;;;;;;;;;;6286700;22;20015;-73
2022/01/16 15:30:50;;;;;;;19.88;6.15;;;;;;;;;;6339310;22;20469;-75
2022/01/16 15:33:19;;;;;;;13.77;5.28;;;;;;;;;;6311671;22;20014;-75
2022/01/16 15:35:48;;;;;;;18.33;6.40;;;;;;;;;;6337428;22;20007;-74
2022/01/16 15:38:19;;;;;;;16.92;5.30;;;;;;;;;;6338656;22;20434;-74
2022/01/16 15:40:48;;;;;;;14.32;5.80;;;;;;;;;;6338864;22;20017;-74
2022/01/16 15:43:17;;;;;;;15.00;6.13;;;;;;;;;;6312603;22;20019;-74
2022/01/16 15:45:47;;;;;;;16.73;5.85;;;;;;;;;;6339688;22;20022;-74
2022/01/16 15:48:20;;;;;;;15.57;6.23;;;;;;;;;;6339749;22;20033;-74
2022/01/16 15:50:49;;;;;;;18.80;7.55;;;;;;;;;;6338962;22;20026;-74
2022/01/16 15:53:38;;;;;;;17.73;6.25;;;;;;;;;;6337871;22;20407;-74
2022/01/16 15:56:11;;;;;;;15.52;6.40;;;;;;;;;;6338411;22;20021;-74
2022/01/16 15:58:40;;;;;;;18.65;6.50;;;;;;;;;;6338506;22;20014;-74
2022/01/16 16:01:12;;;;;;;18.00;7.23;;;;;;;;;;6338358;22;20021;-74